sensor_id;sensor_type;location;lat;lon;timestamp;temperature;humidity
43528;DHT22;52359;42.658;23.320;2022-08-25T05:03:46;21.50;99.90
43528;DHT22;52359;42.658;23.320;2022-08-25T05:06:13;21.30;99.90
43528;DHT22;52359;42.658;23.320;2022-08-25T05:08:39;21.30;99.90
43528;DHT22;52359;42.658;23.320;2022-08-25T05:11:10;21.20;99.90
43528;DHT22;52359;42.658;23.320;2022-08-25T05:13:39;21.50;99.90
43528;DHT22;52359;42.658;23.320;2022-08-25T05:16:06;21.60;99.90
43528;DHT22;52359;42.658;23.320;2022-08-25T05:18:33;21.40;99.90
43528;DHT22;52359;42.658;23.320;2022-08-25T05:21:11;21.50;99.90
43528;DHT22;52359;42.658;23.320;2022-08-25T05:23:37;21.50;99.90
43528;DHT22;52359;42.658;23.320;2022-08-25T05:26:09;21.60;99.90
43528;DHT22;52359;42.658;23.320;2022-08-25T05:28:35;21.50;99.90
43528;DHT22;52359;42.658;23.320;2022-08-25T05:31:02;21.70;99.90
43528;DHT22;52359;42.658;23.320;2022-08-25T05:33:29;21.60;99.90
43528;DHT22;52359;42.658;23.320;2022-08-25T05:35:55;21.80;99.90
43528;DHT22;52359;42.658;23.320;2022-08-25T05:38:21;21.60;99.90
43528;DHT22;52359;42.658;23.320;2022-08-25T05:40:51;21.60;99.90
43528;DHT22;52359;42.658;23.320;2022-08-25T05:43:17;21.90;99.90
43528;DHT22;52359;42.658;23.320;2022-08-25T05:45:43;21.70;99.90
43528;DHT22;52359;42.658;23.320;2022-08-25T08:32:12;26.80;99.90
43528;DHT22;52359;42.658;23.320;2022-08-25T09:10:07;27.90;99.90
43528;DHT22;52359;42.658;23.320;2022-08-25T09:22:59;28.60;99.90
43528;DHT22;52359;42.658;23.320;2022-08-25T09:33:26;27.80;99.90
43528;DHT22;52359;42.658;23.320;2022-08-25T09:35:55;28.00;99.90
43528;DHT22;52359;42.658;23.320;2022-08-25T09:38:21;28.00;99.90
43528;DHT22;52359;42.658;23.320;2022-08-25T09:46:02;28.40;99.90
43528;DHT22;52359;42.658;23.320;2022-08-25T09:48:41;28.50;99.90
43528;DHT22;52359;42.658;23.320;2022-08-25T09:51:27;28.40;99.30
43528;DHT22;52359;42.658;23.320;2022-08-25T09:53:59;28.40;99.40
43528;DHT22;52359;42.658;23.320;2022-08-25T09:56:30;28.50;99.90
43528;DHT22;52359;42.658;23.320;2022-08-25T09:59:23;28.60;99.90
43528;DHT22;52359;42.658;23.320;2022-08-25T10:22:41;28.10;98.90
43528;DHT22;52359;42.658;23.320;2022-08-25T10:25:10;28.60;99.80
43528;DHT22;52359;42.658;23.320;2022-08-25T14:01:42;31.30;89.30
43528;DHT22;52359;42.658;23.320;2022-08-25T14:04:31;31.40;90.70
43528;DHT22;52359;42.658;23.320;2022-08-25T14:32:01;30.50;90.40
43528;DHT22;52359;42.658;23.320;2022-08-25T14:34:31;30.60;90.60
43528;DHT22;52359;42.658;23.320;2022-08-25T14:36:58;30.60;90.90
43528;DHT22;52359;42.658;23.320;2022-08-25T14:39:25;30.10;90.80
43528;DHT22;52359;42.658;23.320;2022-08-25T14:41:51;30.00;91.10
43528;DHT22;52359;42.658;23.320;2022-08-25T14:44:19;29.80;90.90
43528;DHT22;52359;42.658;23.320;2022-08-25T14:46:50;29.80;90.90
43528;DHT22;52359;42.658;23.320;2022-08-25T14:49:24;29.60;91.10
43528;DHT22;52359;42.658;23.320;2022-08-25T14:51:55;29.30;91.10
43528;DHT22;52359;42.658;23.320;2022-08-25T14:54:25;29.40;91.30
43528;DHT22;52359;42.658;23.320;2022-08-25T14:56:51;29.20;91.40
43528;DHT22;52359;42.658;23.320;2022-08-25T14:59:17;29.10;91.60
43528;DHT22;52359;42.658;23.320;2022-08-25T15:01:43;28.90;92.00
43528;DHT22;52359;42.658;23.320;2022-08-25T16:05:14;27.30;92.60
43528;DHT22;52359;42.658;23.320;2022-08-25T16:07:39;27.30;93.50
43528;DHT22;52359;42.658;23.320;2022-08-25T16:10:06;27.20;93.80
43528;DHT22;52359;42.658;23.320;2022-08-25T16:12:32;27.00;93.80
43528;DHT22;52359;42.658;23.320;2022-08-25T23:16:30;21.70;99.90
43528;DHT22;52359;42.658;23.320;2022-08-25T23:38:46;21.70;99.90
43528;DHT22;52359;42.658;23.320;2022-08-25T23:41:15;21.60;99.90
